createdAt,value
2022-12-03T00:00:21.600Z,8.38
2022-12-03T00:01:18.350Z,8.74
2022-12-03T00:02:15.345Z,8.60
2022-12-03T00:03:12.277Z,7.70
2022-12-03T00:04:09.192Z,8.09
2022-12-03T00:05:06.156Z,8.13
2022-12-03T00:06:02.961Z,7.96
2022-12-03T00:06:59.706Z,8.58
2022-12-03T00:07:57.040Z,8.37
2022-12-03T00:08:53.981Z,8.28
2022-12-03T00:09:50.716Z,8.46
2022-12-03T00:10:47.667Z,7.65
2022-12-03T00:11:44.486Z,7.90
2022-12-03T00:12:41.252Z,8.42
2022-12-03T00:13:38.045Z,8.73
2022-12-03T00:14:37.765Z,8.47
2022-12-03T00:15:36.795Z,7.89
2022-12-03T00:16:33.891Z,8.00
2022-12-03T00:17:30.657Z,8.27
2022-12-03T00:18:27.403Z,8.27
2022-12-03T00:19:24.227Z,7.85
2022-12-03T00:20:23.646Z,7.87
2022-12-03T00:21:20.424Z,7.94
2022-12-03T00:22:17.212Z,8.30
2022-12-03T00:23:13.921Z,7.92
2022-12-03T00:24:10.706Z,8.12
2022-12-03T00:25:08.176Z,8.04
2022-12-03T00:26:05.068Z,8.10
2022-12-03T00:27:01.758Z,7.72
2022-12-03T00:27:58.577Z,7.97
2022-12-03T00:28:55.397Z,8.28
2022-12-03T00:29:52.143Z,8.62
2022-12-03T00:30:49.217Z,8.58
2022-12-03T00:31:46.206Z,8.07
2022-12-03T00:32:43.044Z,8.08
2022-12-03T00:33:39.763Z,8.27
2022-12-03T00:34:36.530Z,8.22
2022-12-03T00:35:33.257Z,7.99
2022-12-03T00:36:29.963Z,8.00
2022-12-03T00:37:26.753Z,7.60
2022-12-03T00:38:23.565Z,7.89
2022-12-03T00:39:20.268Z,7.55
2022-12-03T00:40:17.120Z,7.41
2022-12-03T00:41:13.971Z,8.24
2022-12-03T00:42:10.707Z,7.99
2022-12-03T00:43:07.521Z,7.65
2022-12-03T00:44:04.351Z,7.93
2022-12-03T00:45:01.236Z,7.99
2022-12-03T00:45:58.169Z,8.23
2022-12-03T00:46:55.059Z,6.95
2022-12-03T00:47:51.916Z,7.52
2022-12-03T00:48:48.711Z,7.99
2022-12-03T00:49:45.630Z,8.18
2022-12-03T00:50:42.437Z,8.00
2022-12-03T00:51:39.233Z,8.14
2022-12-03T00:52:35.990Z,7.54
2022-12-03T00:53:32.707Z,7.93
2022-12-03T00:54:32.119Z,7.18
2022-12-03T00:55:29.145Z,7.44
2022-12-03T00:56:25.846Z,7.46
2022-12-03T00:57:22.580Z,7.34
2022-12-03T00:58:19.322Z,7.90
2022-12-03T00:59:16.106Z,7.87
2022-12-03T01:00:13.666Z,7.93
2022-12-03T01:01:10.456Z,8.04
2022-12-03T01:02:07.269Z,7.77
2022-12-03T01:03:04.522Z,6.85
2022-12-03T01:04:01.218Z,7.97
2022-12-03T01:04:58.098Z,6.67
2022-12-03T01:05:54.868Z,7.83
2022-12-03T01:06:51.629Z,7.89
2022-12-03T01:07:48.503Z,7.76
2022-12-03T01:08:45.300Z,6.83
2022-12-03T01:09:42.144Z,7.10
2022-12-03T01:10:39.005Z,8.01
2022-12-03T01:11:38.964Z,7.83
2022-12-03T01:12:35.743Z,7.89
2022-12-03T01:13:32.497Z,7.92
2022-12-03T01:14:29.258Z,8.11
2022-12-03T01:15:25.977Z,7.80
2022-12-03T01:16:22.898Z,7.98
2022-12-03T01:17:19.795Z,7.01
2022-12-03T01:18:16.582Z,7.85
2022-12-03T01:19:31.700Z,5.71
2022-12-03T01:20:28.551Z,7.64
2022-12-03T01:21:25.302Z,7.75
2022-12-03T01:22:22.115Z,7.67
2022-12-03T01:23:18.885Z,7.82
2022-12-03T01:24:26.518Z,7.74
2022-12-03T01:25:23.648Z,8.02
2022-12-03T01:26:20.786Z,7.17
2022-12-03T01:27:17.552Z,7.23
2022-12-03T01:28:14.433Z,8.08
2022-12-03T01:29:11.315Z,8.13
2022-12-03T01:30:09.626Z,8.18
2022-12-03T01:31:25.268Z,7.78
2022-12-03T01:32:22.390Z,6.24
2022-12-03T01:33:21.530Z,8.03
2022-12-03T01:34:18.459Z,8.61
2022-12-03T01:35:15.321Z,8.88
2022-12-03T01:36:16.447Z,8.67
2022-12-03T01:37:13.726Z,9.07
2022-12-03T01:38:12.981Z,8.58
2022-12-03T01:39:09.680Z,9.04
2022-12-03T01:40:08.989Z,9.08
2022-12-03T01:41:10.172Z,7.75
2022-12-03T01:42:15.184Z,8.95
2022-12-03T01:43:11.900Z,8.13
2022-12-03T01:44:18.280Z,9.01
2022-12-03T01:45:22.833Z,8.69
2022-12-03T01:46:24.131Z,8.78
2022-12-03T01:47:27.460Z,8.46
2022-12-03T01:48:24.339Z,8.30
2022-12-03T01:49:25.541Z,8.77
2022-12-03T01:50:33.277Z,8.37
2022-12-03T01:51:32.747Z,8.75
2022-12-03T01:52:34.500Z,8.74
2022-12-03T01:53:31.234Z,7.03
2022-12-03T01:54:42.314Z,8.81
2022-12-03T01:55:39.170Z,9.00
2022-12-03T01:56:35.952Z,7.99
2022-12-03T01:57:43.662Z,8.92
2022-12-03T01:58:42.082Z,8.47
2022-12-03T01:59:39.491Z,8.40
2022-12-03T02:00:36.259Z,7.20
2022-12-03T02:01:33.121Z,7.91
2022-12-03T02:02:32.198Z,7.54
2022-12-03T02:03:29.089Z,7.94
2022-12-03T02:04:26.374Z,7.93
2022-12-03T02:05:26.695Z,7.98
2022-12-03T02:06:30.086Z,7.87
2022-12-03T02:07:33.748Z,7.86
2022-12-03T02:08:32.254Z,7.68
2022-12-03T02:09:29.069Z,7.79
2022-12-03T02:10:33.449Z,7.62
2022-12-03T02:11:33.683Z,7.88
2022-12-03T02:12:38.139Z,8.45
2022-12-03T02:13:36.109Z,8.65
2022-12-03T02:14:32.861Z,9.05
2022-12-03T02:15:29.898Z,8.60
2022-12-03T02:16:26.791Z,8.13
2022-12-03T02:17:23.902Z,7.89
2022-12-03T02:18:21.251Z,7.08
2022-12-03T02:19:31.764Z,7.97
2022-12-03T02:20:30.579Z,7.67
2022-12-03T02:21:42.020Z,8.32
2022-12-03T02:23:17.144Z,8.67
2022-12-03T02:24:24.325Z,8.97
2022-12-03T02:25:22.649Z,8.72
2022-12-03T02:26:19.701Z,8.40
2022-12-03T02:27:16.563Z,8.32
2022-12-03T02:28:13.435Z,8.31
2022-12-03T02:29:10.269Z,8.32
2022-12-03T02:30:08.600Z,8.48
2022-12-03T02:31:06.266Z,8.18
2022-12-03T02:32:03.216Z,8.59
2022-12-03T02:33:01.538Z,8.91
2022-12-03T02:33:58.362Z,9.05
2022-12-03T02:34:55.478Z,8.77
2022-12-03T02:35:53.062Z,8.04
2022-12-03T02:36:51.938Z,8.99
2022-12-03T02:37:55.027Z,7.49
2022-12-03T02:38:51.913Z,8.56
2022-12-03T02:39:58.310Z,8.60
2022-12-03T02:40:59.668Z,7.54
2022-12-03T02:42:15.255Z,8.25
2022-12-03T02:43:16.505Z,8.18
2022-12-03T02:44:13.574Z,8.17
2022-12-03T02:45:13.249Z,8.37
2022-12-03T02:46:09.997Z,8.32
2022-12-03T02:47:06.923Z,8.41
2022-12-03T02:48:12.027Z,8.66
2022-12-03T02:49:09.095Z,8.46
2022-12-03T02:50:07.794Z,8.03
2022-12-03T02:51:08.934Z,7.03
2022-12-03T02:52:05.841Z,6.87
2022-12-03T02:53:09.244Z,7.56
2022-12-03T02:54:06.135Z,8.34
2022-12-03T02:55:06.401Z,8.53
2022-12-03T02:56:04.737Z,8.76
2022-12-03T02:57:02.455Z,9.02
2022-12-03T02:57:59.435Z,8.72
2022-12-03T02:59:02.136Z,8.52
2022-12-03T02:59:59.007Z,8.47
2022-12-03T03:00:56.658Z,8.09
2022-12-03T03:01:53.578Z,7.39
2022-12-03T03:02:51.030Z,7.38
2022-12-03T03:03:50.509Z,8.23
2022-12-03T03:04:48.446Z,7.66
2022-12-03T03:05:47.341Z,8.34
2022-12-03T03:06:44.549Z,8.58
2022-12-03T03:07:42.161Z,6.71
2022-12-03T03:08:41.613Z,8.17
2022-12-03T03:09:38.622Z,8.38
2022-12-03T03:10:40.718Z,5.08
2022-12-03T03:11:37.674Z,7.56
2022-12-03T03:12:38.952Z,8.18
2022-12-03T03:13:38.064Z,8.78
2022-12-03T03:14:35.470Z,8.55
2022-12-03T03:15:32.210Z,8.72
2022-12-03T03:16:29.199Z,9.06
2022-12-03T03:17:26.613Z,8.58
2022-12-03T03:18:23.753Z,8.95
2022-12-03T03:19:20.517Z,8.74
2022-12-03T03:20:17.715Z,8.18
2022-12-03T03:21:14.778Z,7.49
2022-12-03T03:22:12.242Z,7.33
2022-12-03T03:23:12.046Z,8.02
2022-12-03T03:24:08.901Z,7.00
2022-12-03T03:25:09.724Z,8.27
2022-12-03T03:26:09.886Z,8.23
2022-12-03T03:27:07.072Z,8.11
2022-12-03T03:28:05.534Z,8.19
2022-12-03T03:29:03.188Z,8.43
2022-12-03T03:30:00.761Z,7.80
2022-12-03T03:31:02.307Z,8.27
2022-12-03T03:32:00.411Z,8.53
2022-12-03T03:32:57.803Z,7.93
2022-12-03T03:33:54.814Z,7.65
2022-12-03T03:34:52.091Z,8.71
2022-12-03T03:35:49.843Z,8.69
2022-12-03T03:36:47.084Z,8.72
2022-12-03T03:37:44.025Z,8.75
2022-12-03T03:38:41.895Z,8.09
2022-12-03T03:39:39.032Z,8.11
2022-12-03T03:40:38.511Z,6.87
2022-12-03T03:41:36.316Z,8.17
2022-12-03T03:42:33.691Z,8.17
2022-12-03T03:43:34.959Z,8.13
2022-12-03T03:44:32.851Z,8.11
2022-12-03T03:45:29.941Z,7.13
2022-12-03T03:46:29.479Z,7.98
2022-12-03T03:47:26.752Z,8.32
2022-12-03T03:48:23.875Z,7.48
2022-12-03T03:49:21.254Z,8.38
2022-12-03T03:50:18.659Z,8.34
2022-12-03T03:51:18.199Z,7.83
2022-12-03T03:52:15.443Z,7.89
2022-12-03T03:53:14.020Z,8.45
2022-12-03T03:54:11.070Z,7.81
2022-12-03T03:55:11.440Z,6.89
2022-12-03T03:56:10.824Z,7.62
2022-12-03T03:57:07.807Z,8.08
2022-12-03T03:58:04.927Z,7.66
2022-12-03T03:59:03.217Z,8.42
2022-12-03T04:00:00.247Z,8.12
2022-12-03T04:00:57.192Z,7.95
2022-12-03T04:01:54.084Z,8.35
2022-12-03T04:02:52.486Z,7.74
2022-12-03T04:03:49.281Z,7.71
2022-12-03T04:04:47.550Z,7.95
2022-12-03T04:05:44.402Z,8.38
2022-12-03T04:06:41.247Z,7.45
2022-12-03T04:07:38.058Z,8.69
2022-12-03T04:08:35.012Z,8.40
2022-12-03T04:09:31.751Z,7.39
2022-12-03T04:10:47.226Z,8.46
2022-12-03T04:12:02.783Z,8.63
2022-12-03T04:13:00.051Z,8.25
2022-12-03T04:13:56.816Z,8.32
2022-12-03T04:14:53.779Z,8.37
2022-12-03T04:15:50.716Z,8.32
2022-12-03T04:16:47.522Z,8.28
2022-12-03T04:17:44.280Z,8.40
2022-12-03T04:18:43.823Z,8.18
2022-12-03T04:19:43.685Z,8.08
2022-12-03T04:20:40.512Z,8.22
2022-12-03T04:21:56.034Z,8.67
2022-12-03T04:22:52.931Z,8.78
2022-12-03T04:23:49.774Z,8.35
2022-12-03T04:24:46.608Z,7.97
2022-12-03T04:26:01.935Z,7.95
2022-12-03T04:27:17.336Z,8.25
2022-12-03T04:28:32.983Z,7.52
2022-12-03T04:29:29.790Z,8.34
2022-12-03T04:30:26.611Z,7.95
2022-12-03T04:31:41.896Z,8.32
2022-12-03T04:32:57.469Z,8.73
2022-12-03T04:34:13.039Z,8.75
2022-12-03T04:35:28.902Z,8.56
2022-12-03T04:36:25.807Z,8.61
2022-12-03T04:37:22.632Z,8.76
2022-12-03T04:38:19.428Z,8.79
2022-12-03T04:39:16.465Z,8.64
2022-12-03T04:40:32.141Z,7.46
2022-12-03T04:41:28.978Z,8.00
2022-12-03T04:42:25.823Z,8.60
2022-12-03T04:43:22.809Z,8.40
2022-12-03T04:44:38.251Z,8.66
2022-12-03T04:45:35.099Z,8.64
2022-12-03T04:46:32.122Z,8.11
2022-12-03T04:47:29.020Z,8.87
2022-12-03T04:48:26.164Z,8.24
2022-12-03T04:49:23.429Z,8.13
2022-12-03T04:50:20.167Z,7.69
2022-12-03T04:51:16.864Z,7.36
2022-12-03T04:52:15.996Z,8.07
2022-12-03T04:53:12.991Z,8.24
2022-12-03T04:54:09.861Z,8.17
2022-12-03T04:55:06.813Z,7.98
2022-12-03T04:56:03.580Z,7.89
2022-12-03T04:57:00.612Z,8.30
2022-12-03T04:57:57.450Z,8.10
2022-12-03T04:58:54.187Z,7.12
2022-12-03T04:59:51.027Z,7.60
2022-12-03T05:00:47.835Z,8.64
2022-12-03T05:01:45.280Z,8.61
2022-12-03T05:02:42.135Z,8.40
2022-12-03T05:03:39.783Z,8.53
2022-12-03T05:04:36.540Z,8.31
2022-12-03T05:05:33.435Z,8.07
2022-12-03T05:06:30.194Z,7.90
2022-12-03T05:07:26.997Z,7.71
2022-12-03T05:08:23.753Z,8.09
2022-12-03T05:09:21.154Z,8.28
2022-12-03T05:10:18.238Z,8.65
2022-12-03T05:11:15.341Z,7.83
2022-12-03T05:12:12.122Z,8.30
2022-12-03T05:13:09.201Z,8.00
2022-12-03T05:14:06.102Z,8.35
2022-12-03T05:15:03.059Z,8.41
2022-12-03T05:15:59.897Z,8.47
2022-12-03T05:16:56.777Z,7.83
2022-12-03T05:17:53.558Z,8.55
2022-12-03T05:18:50.383Z,6.01
2022-12-03T05:20:05.802Z,7.55
2022-12-03T05:21:02.600Z,7.37
2022-12-03T05:21:59.329Z,7.63
2022-12-03T05:22:56.705Z,7.67
2022-12-03T05:23:53.780Z,7.84
2022-12-03T05:24:50.785Z,8.03
2022-12-03T05:25:47.801Z,8.43
2022-12-03T05:26:44.665Z,7.87
2022-12-03T05:27:41.540Z,8.13
2022-12-03T05:28:38.378Z,7.91
2022-12-03T05:29:35.181Z,8.82
2022-12-03T05:30:32.133Z,7.88
2022-12-03T05:31:28.986Z,8.13
2022-12-03T05:32:25.846Z,8.29
2022-12-03T05:33:22.952Z,8.48
2022-12-03T05:34:19.875Z,7.28
2022-12-03T05:35:16.915Z,8.46
2022-12-03T05:36:13.737Z,8.57
2022-12-03T05:37:11.119Z,8.69
2022-12-03T05:38:07.974Z,8.76
2022-12-03T05:39:04.748Z,8.64
2022-12-03T05:40:01.772Z,7.59
2022-12-03T05:40:58.608Z,7.48
2022-12-03T05:42:14.201Z,8.63
2022-12-03T05:43:11.077Z,8.72
2022-12-03T05:44:07.808Z,8.43
2022-12-03T05:45:05.074Z,8.68
2022-12-03T05:46:01.986Z,8.32
2022-12-03T05:46:58.770Z,6.25
2022-12-03T05:47:57.473Z,8.60
2022-12-03T05:48:54.251Z,8.17
2022-12-03T05:49:50.970Z,8.38
2022-12-03T05:52:01.884Z,7.21
2022-12-03T05:52:59.953Z,8.32
2022-12-03T05:53:56.758Z,8.40
2022-12-03T05:54:53.821Z,8.53
2022-12-03T05:55:50.860Z,7.94
2022-12-03T05:56:47.715Z,7.97
2022-12-03T05:57:44.800Z,7.46
2022-12-03T05:58:41.526Z,7.58
2022-12-03T05:59:38.288Z,7.68
2022-12-03T06:00:42.426Z,8.00
2022-12-03T06:01:39.895Z,7.18
2022-12-03T06:02:36.828Z,8.12
2022-12-03T06:03:33.908Z,8.13
2022-12-03T06:04:30.740Z,8.36
2022-12-03T06:05:27.521Z,8.54
2022-12-03T06:06:24.237Z,8.36
2022-12-03T06:07:21.124Z,8.38
2022-12-03T06:08:17.936Z,8.08
2022-12-03T06:09:14.808Z,7.74
2022-12-03T06:10:14.542Z,7.58
2022-12-03T06:11:11.311Z,8.20
2022-12-03T06:12:11.210Z,7.92
2022-12-03T06:13:08.003Z,8.50
2022-12-03T06:14:04.818Z,8.18
2022-12-03T06:15:02.089Z,8.27
2022-12-03T06:15:59.268Z,8.11
2022-12-03T06:16:56.085Z,8.75
2022-12-03T06:17:52.957Z,8.13
2022-12-03T06:18:49.694Z,8.44
2022-12-03T06:19:46.672Z,7.92
2022-12-03T06:20:43.413Z,8.83
2022-12-03T06:21:40.239Z,8.48
2022-12-03T06:22:37.007Z,8.58
2022-12-03T06:23:33.747Z,8.11
2022-12-03T06:24:30.538Z,8.33
2022-12-03T06:25:27.279Z,7.47
2022-12-03T06:26:24.091Z,8.79
2022-12-03T06:27:20.856Z,8.69
2022-12-03T06:28:17.573Z,8.16
2022-12-03T06:29:14.288Z,8.38
2022-12-03T06:30:14.019Z,8.76
2022-12-03T06:31:10.786Z,8.10
2022-12-03T06:32:07.751Z,7.75
2022-12-03T06:33:04.662Z,8.20
2022-12-03T06:34:01.518Z,8.17
2022-12-03T06:34:58.361Z,7.71
2022-12-03T06:35:55.103Z,8.30
2022-12-03T06:36:51.952Z,7.75
2022-12-03T06:37:48.685Z,8.13
2022-12-03T06:38:45.468Z,8.63
2022-12-03T06:39:42.278Z,8.85
2022-12-03T06:40:39.049Z,7.70
2022-12-03T06:41:35.832Z,8.62
2022-12-03T06:42:32.632Z,9.09
2022-12-03T06:43:30.993Z,8.32
2022-12-03T06:44:27.870Z,8.38
2022-12-03T06:45:24.705Z,7.96
2022-12-03T06:46:21.583Z,7.62
2022-12-03T06:47:18.370Z,8.17
2022-12-03T06:48:15.382Z,8.30
2022-12-03T06:49:12.072Z,8.45
2022-12-03T06:50:09.301Z,8.70
2022-12-03T06:51:06.238Z,7.59
2022-12-03T06:52:03.011Z,7.24
2022-12-03T06:52:59.813Z,8.13
2022-12-03T06:53:56.553Z,7.91
2022-12-03T06:54:53.529Z,8.51
2022-12-03T06:55:50.473Z,8.69
2022-12-03T06:56:47.277Z,8.09
2022-12-03T06:57:44.024Z,8.21
2022-12-03T06:58:40.758Z,8.04
2022-12-03T06:59:38.009Z,7.76
2022-12-03T07:00:34.883Z,7.73
2022-12-03T07:01:31.716Z,7.54
2022-12-03T07:02:28.564Z,8.46
2022-12-03T07:03:25.374Z,8.33
2022-12-03T07:04:22.219Z,8.73
2022-12-03T07:05:19.504Z,7.58
2022-12-03T07:06:16.737Z,7.91
2022-12-03T07:07:13.871Z,7.40
2022-12-03T07:08:10.728Z,8.14
2022-12-03T07:09:07.646Z,8.15
2022-12-03T07:10:05.240Z,8.06
2022-12-03T07:11:01.959Z,7.38
2022-12-03T07:11:58.884Z,7.80
2022-12-03T07:12:55.601Z,6.75
2022-12-03T07:13:52.682Z,8.01
2022-12-03T07:14:49.406Z,7.99
2022-12-03T07:15:46.241Z,7.77
2022-12-03T07:16:43.776Z,7.96
2022-12-03T07:17:40.772Z,7.69
2022-12-03T07:18:37.484Z,7.86
2022-12-03T07:19:34.276Z,8.44
2022-12-03T07:20:31.062Z,7.49
2022-12-03T07:21:27.871Z,7.22
2022-12-03T07:22:24.673Z,8.22
2022-12-03T07:23:21.381Z,7.84
2022-12-03T07:24:18.105Z,8.24
2022-12-03T07:25:19.544Z,7.91
2022-12-03T07:26:19.575Z,8.42
2022-12-03T07:27:16.572Z,8.63
2022-12-03T07:28:13.305Z,8.56
2022-12-03T07:29:10.032Z,8.40
2022-12-03T07:30:08.446Z,8.80
2022-12-03T07:31:05.596Z,8.34
2022-12-03T07:32:02.374Z,8.37
2022-12-03T07:32:59.225Z,7.97
2022-12-03T07:33:55.995Z,8.13
2022-12-03T07:34:52.990Z,8.74
2022-12-03T07:35:49.945Z,8.27
2022-12-03T07:36:46.654Z,7.93
2022-12-03T07:37:43.589Z,7.33
2022-12-03T07:38:40.398Z,7.93
2022-12-03T07:39:37.197Z,7.46
2022-12-03T07:40:33.986Z,8.07
2022-12-03T07:41:30.703Z,7.44
2022-12-03T07:42:27.838Z,8.17
2022-12-03T07:43:24.568Z,7.49
2022-12-03T07:44:21.302Z,7.58
2022-12-03T07:45:18.128Z,8.11
2022-12-03T07:46:14.977Z,8.04
2022-12-03T07:47:11.835Z,7.86
2022-12-03T07:48:08.639Z,8.19
2022-12-03T07:49:05.333Z,7.50
2022-12-03T07:50:02.089Z,7.44
2022-12-03T07:50:58.901Z,7.56
2022-12-03T07:51:57.093Z,6.89
2022-12-03T07:52:56.864Z,7.25
2022-12-03T07:53:53.624Z,7.97
2022-12-03T07:54:50.431Z,8.90
2022-12-03T07:55:47.280Z,8.70
2022-12-03T07:56:44.316Z,8.80
2022-12-03T07:57:41.071Z,9.00
2022-12-03T07:58:37.880Z,8.44
2022-12-03T07:59:34.653Z,8.13
2022-12-03T08:00:31.728Z,7.34
2022-12-03T08:01:28.636Z,8.09
2022-12-03T08:02:25.451Z,8.38
2022-12-03T08:03:22.343Z,7.44
2022-12-03T08:04:21.224Z,7.29
2022-12-03T08:05:18.426Z,8.44
2022-12-03T08:06:15.348Z,8.56
2022-12-03T08:07:12.203Z,8.51
2022-12-03T08:08:09.034Z,8.49
2022-12-03T08:09:05.924Z,9.00
2022-12-03T08:10:03.416Z,8.46
2022-12-03T08:11:02.078Z,8.60
2022-12-03T08:12:06.779Z,8.65
2022-12-03T08:13:11.864Z,9.10
2022-12-03T08:14:14.913Z,9.10
2022-12-03T08:15:18.410Z,9.17
2022-12-03T08:16:20.319Z,9.36
2022-12-03T08:17:18.654Z,8.87
2022-12-03T08:18:19.047Z,9.03
2022-12-03T08:19:18.163Z,9.28
2022-12-03T08:20:29.099Z,7.45
2022-12-03T08:21:35.544Z,7.81
2022-12-03T08:22:32.358Z,8.30
2022-12-03T08:23:31.427Z,8.01
2022-12-03T08:24:29.297Z,8.69
2022-12-03T08:25:30.560Z,8.52
2022-12-03T08:26:28.796Z,8.64
2022-12-03T08:27:25.576Z,9.18
2022-12-03T08:28:26.591Z,9.14
2022-12-03T08:29:24.561Z,8.51
2022-12-03T08:30:21.392Z,9.47
2022-12-03T08:31:32.325Z,9.27
2022-12-03T08:32:31.535Z,9.23
2022-12-03T08:33:37.308Z,9.64
2022-12-03T08:34:40.828Z,9.32
2022-12-03T08:35:37.803Z,8.98
2022-12-03T08:36:36.484Z,8.67
2022-12-03T08:37:33.276Z,8.94
2022-12-03T08:38:30.025Z,9.57
2022-12-03T08:39:35.851Z,8.32
2022-12-03T08:40:43.987Z,8.89
2022-12-03T08:42:02.100Z,8.75
2022-12-03T08:42:58.985Z,8.86
2022-12-03T08:43:56.064Z,8.64
2022-12-03T08:44:56.356Z,8.91
2022-12-03T08:45:56.024Z,7.73
2022-12-03T08:46:55.772Z,9.22
2022-12-03T08:47:52.514Z,6.43
2022-12-03T08:48:49.789Z,9.29
2022-12-03T08:49:58.188Z,8.72
2022-12-03T08:50:57.989Z,9.31
2022-12-03T08:51:59.804Z,9.49
2022-12-03T08:53:20.563Z,8.95
2022-12-03T08:54:20.271Z,9.35
2022-12-03T08:55:47.240Z,9.54
2022-12-03T08:56:44.875Z,9.81
2022-12-03T08:57:43.373Z,9.21
2022-12-03T08:58:46.888Z,8.86
2022-12-03T08:59:45.623Z,8.97
2022-12-03T09:00:42.905Z,9.33
2022-12-03T09:01:45.426Z,8.86
2022-12-03T09:02:48.186Z,9.46
2022-12-03T09:03:53.548Z,9.78
2022-12-03T09:04:52.149Z,9.30
2022-12-03T09:05:49.170Z,9.73
2022-12-03T09:06:45.963Z,9.52
2022-12-03T09:07:42.808Z,10.06
2022-12-03T09:08:39.695Z,7.17
2022-12-03T09:09:36.515Z,9.02
2022-12-03T09:10:33.224Z,9.42
2022-12-03T09:11:30.039Z,9.41
2022-12-03T09:12:26.732Z,8.86
2022-12-03T09:13:23.496Z,8.50
2022-12-03T09:14:22.632Z,8.52
2022-12-03T09:15:19.527Z,9.05
2022-12-03T09:16:16.469Z,9.35
2022-12-03T09:17:13.246Z,9.08
2022-12-03T09:18:14.394Z,9.89
2022-12-03T09:19:11.265Z,9.70
2022-12-03T09:20:08.626Z,9.43
2022-12-03T09:21:05.700Z,9.91
2022-12-03T09:22:05.451Z,9.91
2022-12-03T09:23:02.437Z,9.84
2022-12-03T09:23:59.177Z,9.51
2022-12-03T09:24:56.113Z,9.82
2022-12-03T09:25:53.059Z,9.66
2022-12-03T09:26:50.336Z,9.35
2022-12-03T09:27:47.088Z,9.74
2022-12-03T09:28:43.944Z,9.31
2022-12-03T09:29:40.769Z,9.56
2022-12-03T09:30:37.555Z,9.37
2022-12-03T09:31:34.526Z,9.43
2022-12-03T09:32:31.504Z,9.89
2022-12-03T09:33:28.253Z,9.95
2022-12-03T09:34:25.089Z,9.64
2022-12-03T09:35:22.001Z,9.02
2022-12-03T09:36:18.746Z,9.45
2022-12-03T09:37:15.617Z,9.68
2022-12-03T09:38:12.444Z,9.03
2022-12-03T09:39:09.316Z,8.70
2022-12-03T09:40:07.620Z,9.66
2022-12-03T09:41:04.612Z,9.26
2022-12-03T09:42:03.059Z,8.46
2022-12-03T09:43:00.987Z,8.98
2022-12-03T09:44:05.967Z,9.73
2022-12-03T09:45:10.952Z,9.96
2022-12-03T09:46:08.983Z,9.71
2022-12-03T09:47:06.850Z,9.96
2022-12-03T09:48:04.242Z,9.82
2022-12-03T09:49:02.842Z,10.14
2022-12-03T09:50:00.421Z,10.00
2022-12-03T09:51:00.023Z,10.13
2022-12-03T09:51:58.570Z,9.50
2022-12-03T09:52:59.150Z,9.75
2022-12-03T09:53:58.124Z,9.86
2022-12-03T09:54:55.301Z,9.89
2022-12-03T09:55:52.563Z,9.99
2022-12-03T09:56:49.542Z,10.09
2022-12-03T09:57:48.713Z,9.68
2022-12-03T09:58:45.827Z,9.98
2022-12-03T09:59:42.836Z,10.26
2022-12-03T10:00:42.488Z,8.68
2022-12-03T10:01:40.611Z,10.23
2022-12-03T10:02:38.048Z,10.37
2022-12-03T10:03:35.028Z,10.35
2022-12-03T10:04:31.947Z,9.81
2022-12-03T10:05:34.643Z,8.73
2022-12-03T10:06:34.227Z,10.19
2022-12-03T10:07:31.208Z,10.13
2022-12-03T10:08:32.134Z,10.15
2022-12-03T10:09:32.850Z,8.34
2022-12-03T10:10:29.809Z,8.80
2022-12-03T10:11:28.944Z,9.12
2022-12-03T10:12:25.981Z,9.43
2022-12-03T10:13:31.761Z,9.25
2022-12-03T10:14:29.090Z,8.44
2022-12-03T10:15:26.603Z,9.61
2022-12-03T10:16:24.286Z,9.46
2022-12-03T10:17:21.336Z,9.29
2022-12-03T10:18:24.426Z,10.09
2022-12-03T10:19:32.963Z,9.60
2022-12-03T10:20:34.773Z,9.50
2022-12-03T10:21:39.215Z,9.10
2022-12-03T10:22:37.444Z,8.48
2022-12-03T10:23:34.393Z,9.31
2022-12-03T10:24:35.466Z,9.47
2022-12-03T10:25:32.280Z,9.60
2022-12-03T10:26:40.673Z,9.58
2022-12-03T10:27:37.544Z,8.86
2022-12-03T10:28:40.817Z,9.31
2022-12-03T10:29:37.666Z,8.80
2022-12-03T10:30:34.450Z,9.24
2022-12-03T10:31:36.787Z,9.56
2022-12-03T10:32:46.191Z,9.61
2022-12-03T10:33:47.295Z,9.74
2022-12-03T10:34:45.782Z,10.09
2022-12-03T10:35:42.536Z,9.65
2022-12-03T10:36:39.411Z,8.15
2022-12-03T10:37:36.468Z,8.76
2022-12-03T10:38:33.311Z,6.74
2022-12-03T10:39:30.172Z,8.05
2022-12-03T10:40:33.046Z,9.31
2022-12-03T10:41:32.040Z,9.37
2022-12-03T10:42:32.321Z,8.74
2022-12-03T10:43:29.026Z,9.92
2022-12-03T10:44:27.397Z,10.33
2022-12-03T10:45:24.193Z,9.83
2022-12-03T10:46:22.453Z,9.97
2022-12-03T10:47:21.155Z,10.32
2022-12-03T10:48:21.278Z,10.34
2022-12-03T10:49:19.929Z,9.48
2022-12-03T10:50:19.716Z,10.18
2022-12-03T10:51:21.816Z,9.91
2022-12-03T10:52:27.653Z,10.29
2022-12-03T10:53:29.137Z,10.14
2022-12-03T10:54:29.746Z,9.80
2022-12-03T10:55:36.141Z,9.65
2022-12-03T10:56:32.913Z,9.42
2022-12-03T10:57:29.705Z,10.27
2022-12-03T10:58:32.550Z,9.23
2022-12-03T10:59:33.074Z,10.04
2022-12-03T11:00:29.926Z,10.07
2022-12-03T11:01:27.454Z,10.01
2022-12-03T11:02:26.163Z,10.20
2022-12-03T11:03:26.487Z,10.45
2022-12-03T11:04:35.703Z,10.08
2022-12-03T11:05:33.934Z,9.85
2022-12-03T11:06:35.877Z,9.72
2022-12-03T11:07:32.795Z,10.65
2022-12-03T11:08:36.160Z,10.66
2022-12-03T11:09:39.103Z,9.79
2022-12-03T11:10:38.795Z,10.33
2022-12-03T11:11:35.773Z,9.55
2022-12-03T11:12:34.765Z,10.50
2022-12-03T11:13:34.517Z,10.80
2022-12-03T11:14:56.492Z,10.63
2022-12-03T11:15:53.924Z,10.08
2022-12-03T11:16:53.607Z,9.52
2022-12-03T11:17:53.668Z,9.83
2022-12-03T11:18:50.354Z,9.01
2022-12-03T11:19:49.753Z,8.69
2022-12-03T11:20:46.491Z,9.68
2022-12-03T11:22:04.935Z,10.08
2022-12-03T11:23:01.766Z,10.23
2022-12-03T11:24:04.025Z,9.53
2022-12-03T11:25:25.379Z,10.15
2022-12-03T11:26:28.177Z,10.51
2022-12-03T11:27:24.963Z,9.96
2022-12-03T11:28:31.570Z,10.26
2022-12-03T11:29:58.728Z,9.74
2022-12-03T11:30:58.459Z,10.11
2022-12-03T11:31:55.344Z,9.81
2022-12-03T11:33:04.477Z,8.88
2022-12-03T11:34:21.207Z,10.40
2022-12-03T11:35:23.264Z,10.48
2022-12-03T11:36:36.352Z,10.56
2022-12-03T11:37:37.202Z,10.66
2022-12-03T11:38:41.028Z,10.56
2022-12-03T11:39:53.447Z,10.73
2022-12-03T11:41:12.917Z,10.74
2022-12-03T11:42:27.585Z,10.85
2022-12-03T11:44:26.248Z,9.94
2022-12-03T11:45:31.110Z,10.30
2022-12-03T11:46:43.180Z,9.21
2022-12-03T11:47:39.985Z,10.38
2022-12-03T11:48:45.884Z,10.16
2022-12-03T11:49:47.822Z,10.23
2022-12-03T11:50:51.883Z,9.98
2022-12-03T11:51:49.297Z,9.86
2022-12-03T11:52:52.375Z,9.78
2022-12-03T11:53:51.598Z,9.96
2022-12-03T11:55:25.039Z,9.71
2022-12-03T11:56:27.896Z,9.56
2022-12-03T11:57:38.759Z,9.73
2022-12-03T11:58:39.529Z,9.34
2022-12-03T11:59:36.321Z,9.31
2022-12-03T12:00:33.233Z,9.22
2022-12-03T12:01:43.890Z,9.43
2022-12-03T12:02:43.693Z,9.61
2022-12-03T12:03:49.642Z,9.92
2022-12-03T12:04:46.704Z,10.08
2022-12-03T12:05:50.759Z,10.30
2022-12-03T12:06:53.139Z,9.76
2022-12-03T12:07:51.179Z,10.50
2022-12-03T12:09:00.217Z,10.50
2022-12-03T12:09:57.477Z,9.53
2022-12-03T12:10:58.918Z,9.81
2022-12-03T12:11:55.805Z,9.19
2022-12-03T12:12:55.102Z,10.27
2022-12-03T12:14:04.058Z,10.09
2022-12-03T12:15:20.808Z,10.33
2022-12-03T12:16:42.402Z,10.18
2022-12-03T12:17:39.323Z,9.53
2022-12-03T12:18:43.119Z,10.70
2022-12-03T12:19:43.224Z,10.49
2022-12-03T12:20:40.138Z,9.53
2022-12-03T12:21:50.911Z,10.08
2022-12-03T12:22:47.700Z,9.94
2022-12-03T12:23:44.428Z,10.35
2022-12-03T12:24:43.244Z,10.48
2022-12-03T12:25:41.232Z,9.44
2022-12-03T12:26:50.842Z,10.32
2022-12-03T12:27:50.967Z,9.88
2022-12-03T12:28:47.708Z,10.24
2022-12-03T12:29:53.014Z,9.82
2022-12-03T12:30:49.911Z,10.40
2022-12-03T12:31:53.711Z,10.51
2022-12-03T12:33:07.380Z,9.66
2022-12-03T12:34:05.454Z,10.58
2022-12-03T12:35:21.611Z,10.50
2022-12-03T12:36:18.423Z,10.43
2022-12-03T12:37:33.029Z,9.45
2022-12-03T12:38:31.734Z,10.11
2022-12-03T12:39:28.543Z,10.46
2022-12-03T12:40:32.106Z,9.20
2022-12-03T12:41:28.866Z,9.71
2022-12-03T12:42:33.164Z,10.41
2022-12-03T12:43:32.665Z,10.26
2022-12-03T12:44:32.307Z,9.81
2022-12-03T12:45:33.811Z,10.36
2022-12-03T12:46:47.785Z,10.26
2022-12-03T12:47:57.804Z,9.79
2022-12-03T12:48:59.512Z,9.53
2022-12-03T12:49:57.946Z,9.44
2022-12-03T12:51:02.056Z,10.38
2022-12-03T12:51:58.934Z,10.37
2022-12-03T12:53:06.191Z,10.34
2022-12-03T12:54:11.257Z,10.26
2022-12-03T12:55:10.488Z,10.58
2022-12-03T12:56:32.970Z,10.35
2022-12-03T12:57:29.687Z,10.66
2022-12-03T12:58:33.331Z,9.58
2022-12-03T13:00:01.034Z,10.29
2022-12-03T13:01:09.478Z,8.53
2022-12-03T13:02:33.736Z,10.51
2022-12-03T13:03:37.285Z,9.62
2022-12-03T13:04:42.615Z,6.22
2022-12-03T13:05:53.697Z,8.78
2022-12-03T13:06:56.690Z,9.47
2022-12-03T13:07:54.985Z,9.53
2022-12-03T13:08:53.203Z,10.24
2022-12-03T13:09:56.671Z,9.84
2022-12-03T13:11:00.120Z,9.61
2022-12-03T13:12:04.116Z,9.65